Terminal Aerodrome Forecast
Issued by NWS

Current Version | Previous Version | Text Only | Print | Product List | Glossary Off
Versions: 1 2 3 4 5 6 7 8 9 10 11 12 13 14 15 16 17 18 19 20 21 22

000
FTUS41 KILN 251700
TAFLUK
TAF
KLUK 251725Z 2518/2618 25010KT P6SM SCT035
     FM252200 VRB03KT P6SM BKN028
     FM260700 00000KT P6SM SCT028=

USA.gov is the U.S. government's official web portal to all federal, state and local government web resources and services.